createdAt,value
2022-08-05T00:01:30.752Z,87.16
2022-08-05T00:04:03.642Z,87.05
2022-08-05T00:06:33.372Z,86.71
2022-08-05T00:09:02.410Z,86.76
2022-08-05T00:11:34.726Z,86.52
2022-08-05T00:14:11.986Z,85.79
2022-08-05T00:16:52.836Z,85.67
2022-08-05T00:19:21.513Z,84.98
2022-08-05T00:21:48.979Z,84.19
2022-08-05T00:24:16.260Z,83.94
2022-08-05T00:26:50.792Z,83.23
2022-08-05T00:29:19.242Z,82.67
2022-08-05T00:32:10.081Z,82.01
2022-08-05T00:34:54.890Z,81.43
2022-08-05T00:37:22.666Z,81.19
2022-08-05T00:39:58.850Z,80.77
2022-08-05T00:42:32.542Z,81.51
2022-08-05T00:44:59.474Z,80.97
2022-08-05T00:47:26.130Z,80.12
2022-08-05T00:49:58.389Z,80.34
2022-08-05T00:52:28.781Z,80.19
2022-08-05T00:54:56.126Z,80.13
2022-08-05T00:57:23.110Z,80.09
2022-08-05T00:59:52.551Z,79.39
2022-08-05T01:02:19.111Z,79.72
2022-08-05T01:04:45.786Z,78.93
2022-08-05T01:07:17.998Z,78.75
2022-08-05T01:09:44.953Z,78.21
2022-08-05T01:12:20.086Z,78.08
2022-08-05T01:15:03.896Z,77.74
2022-08-05T01:17:43.987Z,77.23
2022-08-05T01:20:29.890Z,77.47
2022-08-05T01:23:34.738Z,76.64
2022-08-05T01:26:26.260Z,76.17
2022-08-05T01:29:04.324Z,75.44
2022-08-05T01:31:44.811Z,75.63
2022-08-05T01:34:26.801Z,75.34
2022-08-05T01:37:03.984Z,74.90
2022-08-05T01:39:46.017Z,74.70
2022-08-05T01:42:17.034Z,74.79
2022-08-05T01:44:45.685Z,74.38
2022-08-05T01:47:21.988Z,74.17
2022-08-05T01:50:02.037Z,74.12
2022-08-05T01:52:31.658Z,74.19
2022-08-05T01:55:04.559Z,74.46
2022-08-05T01:58:10.722Z,74.19
2022-08-05T02:00:30.755Z,74.11
2022-08-05T02:03:34.175Z,74.08
2022-08-05T02:06:03.429Z,74.34
2022-08-05T02:08:54.790Z,74.36
2022-08-05T02:11:32.740Z,74.68
2022-08-05T02:14:15.603Z,75.10
2022-08-05T02:16:52.742Z,74.96
2022-08-05T02:19:34.548Z,74.86
2022-08-05T02:22:25.416Z,75.04
2022-08-05T02:25:00.067Z,74.87
2022-08-05T02:27:30.226Z,74.81
2022-08-05T02:30:14.693Z,74.87
2022-08-05T02:32:43.432Z,74.65
2022-08-05T02:35:27.698Z,75.17
2022-08-05T02:37:56.592Z,74.92
2022-08-05T02:40:27.559Z,75.84
2022-08-05T02:42:56.444Z,76.48
2022-08-05T02:45:25.348Z,77.39
2022-08-05T02:48:11.441Z,77.82
2022-08-05T02:50:43.811Z,77.74
2022-08-05T02:53:19.083Z,77.93
2022-08-05T02:55:54.066Z,78.44
2022-08-05T02:58:23.159Z,78.88
2022-08-05T03:00:56.326Z,79.33
2022-08-05T03:03:23.599Z,79.15
2022-08-05T03:06:54.183Z,79.28
2022-08-05T03:08:42.722Z,79.87
2022-08-05T03:11:56.042Z,80.26
2022-08-05T03:14:13.839Z,80.62
2022-08-05T03:16:41.315Z,81.16
2022-08-05T03:19:12.790Z,81.83
2022-08-05T03:21:48.623Z,82.11
2022-08-05T03:24:29.621Z,82.46
2022-08-05T03:26:58.604Z,82.35
2022-08-05T03:29:46.065Z,80.88
2022-08-05T03:32:14.271Z,82.06
2022-08-05T03:34:41.603Z,81.93
2022-08-05T03:37:08.040Z,82.06
2022-08-05T03:39:47.198Z,81.82
2022-08-05T03:42:21.191Z,81.99
2022-08-05T03:44:47.672Z,82.33
2022-08-05T03:47:14.249Z,82.31
2022-08-05T03:49:51.444Z,82.64
2022-08-05T03:52:38.382Z,83.15
2022-08-05T03:56:05.120Z,83.47
2022-08-05T03:58:10.695Z,83.40
2022-08-05T04:00:39.816Z,83.66
2022-08-05T04:03:26.629Z,83.69
2022-08-05T04:05:57.641Z,83.54
2022-08-05T04:08:34.953Z,84.07
2022-08-05T04:11:05.941Z,83.96
2022-08-05T04:13:50.155Z,83.89
2022-08-05T04:16:25.370Z,84.08
2022-08-05T04:19:00.076Z,84.30
2022-08-05T04:22:08.931Z,84.48
2022-08-05T04:24:19.704Z,84.38
2022-08-05T04:26:49.819Z,84.41
2022-08-05T04:29:16.436Z,84.77
2022-08-05T04:31:43.099Z,84.88
2022-08-05T04:34:18.303Z,84.85
2022-08-05T04:36:50.179Z,84.37
2022-08-05T04:39:18.579Z,84.37
2022-08-05T04:41:45.816Z,84.27
2022-08-05T04:44:14.695Z,84.28
2022-08-05T04:46:47.551Z,84.44
2022-08-05T04:49:15.274Z,84.41
2022-08-05T04:51:43.572Z,84.69
2022-08-05T04:54:10.128Z,84.64
2022-08-05T04:56:38.553Z,84.44
2022-08-05T04:59:22.906Z,84.76
2022-08-05T05:02:06.954Z,84.72
2022-08-05T05:04:47.890Z,84.64
2022-08-05T05:07:21.179Z,84.53
2022-08-05T05:09:55.893Z,84.50
2022-08-05T05:12:24.255Z,84.26
2022-08-05T05:14:54.052Z,84.62
2022-08-05T05:17:24.266Z,84.22
2022-08-05T05:19:56.466Z,85.00
2022-08-05T05:22:26.488Z,84.13
2022-08-05T05:24:59.893Z,84.58
2022-08-05T05:27:41.799Z,83.77
2022-08-05T05:30:29.358Z,83.45
2022-08-05T05:33:00.639Z,82.65
2022-08-05T05:35:34.456Z,82.32
2022-08-05T05:38:06.369Z,81.02
2022-08-05T05:40:36.164Z,80.25
2022-08-05T05:43:02.994Z,79.71
2022-08-05T05:45:29.784Z,79.11
2022-08-05T05:48:05.432Z,79.19
2022-08-05T05:50:43.928Z,78.55
2022-08-05T05:53:22.617Z,78.49
2022-08-05T05:55:51.710Z,78.51
2022-08-05T05:58:31.719Z,78.30
2022-08-05T06:01:11.971Z,78.83
2022-08-05T06:04:00.352Z,78.54
2022-08-05T06:06:28.030Z,78.63
2022-08-05T06:08:58.478Z,78.95
2022-08-05T06:11:25.042Z,78.82
2022-08-05T06:13:54.171Z,78.88
2022-08-05T06:16:28.320Z,78.96
2022-08-05T06:19:00.796Z,79.34
2022-08-05T06:21:35.721Z,78.42
2022-08-05T06:24:05.081Z,77.44
2022-08-05T06:26:33.991Z,76.60
2022-08-05T06:29:03.289Z,76.43
2022-08-05T06:31:32.177Z,75.63
2022-08-05T06:34:07.701Z,75.52
2022-08-05T06:36:56.937Z,74.88
2022-08-05T06:39:22.325Z,74.18
2022-08-05T06:41:53.522Z,73.84
2022-08-05T06:44:19.924Z,72.74
2022-08-05T06:46:50.723Z,72.38
2022-08-05T06:49:17.841Z,71.91
2022-08-05T06:51:45.575Z,72.43
2022-08-05T06:54:18.908Z,72.12
2022-08-05T06:56:54.960Z,71.38
2022-08-05T06:59:38.535Z,71.26
2022-08-05T07:02:05.417Z,70.68
2022-08-05T07:04:31.894Z,69.99
2022-08-05T07:06:59.773Z,68.97
2022-08-05T07:09:26.250Z,69.18
2022-08-05T07:12:00.630Z,68.60
2022-08-05T07:14:45.945Z,68.49
2022-08-05T07:17:58.837Z,67.72
2022-08-05T07:22:45.772Z,67.62
2022-08-05T07:25:54.095Z,67.16
2022-08-05T07:28:05.925Z,66.45
2022-08-05T07:30:38.849Z,66.80
2022-08-05T07:33:09.748Z,67.01
2022-08-05T07:36:03.793Z,67.06
2022-08-05T07:38:33.510Z,67.00
2022-08-05T07:41:17.184Z,67.27
2022-08-05T07:43:49.217Z,67.14
2022-08-05T07:46:24.295Z,67.57
2022-08-05T07:49:03.591Z,68.10
2022-08-05T07:51:37.268Z,69.08
2022-08-05T07:54:05.295Z,68.63
2022-08-05T07:56:39.383Z,68.17
2022-08-05T07:59:18.196Z,68.78
2022-08-05T08:01:52.053Z,69.22
2022-08-05T08:04:37.419Z,70.05
2022-08-05T08:07:07.477Z,69.52
2022-08-05T08:09:34.504Z,70.01
2022-08-05T08:12:09.053Z,70.05
2022-08-05T08:14:42.367Z,71.42
2022-08-05T08:17:21.304Z,72.39
2022-08-05T08:20:22.113Z,73.89
2022-08-05T08:22:35.193Z,74.19
2022-08-05T08:25:02.746Z,73.97
2022-08-05T08:27:40.082Z,74.75
2022-08-05T08:30:19.569Z,73.95
2022-08-05T08:32:56.881Z,75.94
2022-08-05T08:35:26.542Z,74.76
2022-08-05T08:37:53.591Z,74.22
2022-08-05T08:40:23.708Z,74.10
2022-08-05T08:42:53.017Z,74.01
2022-08-05T08:45:26.547Z,74.60
2022-08-05T08:48:10.726Z,74.18
2022-08-05T08:51:23.189Z,75.26
2022-08-05T08:53:36.372Z,75.18
2022-08-05T08:56:06.610Z,76.04
2022-08-05T08:58:37.147Z,74.65
2022-08-05T09:01:15.870Z,74.17
2022-08-05T09:03:46.508Z,74.06
2022-08-05T09:06:17.189Z,73.14
2022-08-05T09:08:46.770Z,73.84
2022-08-05T09:11:14.853Z,73.93
2022-08-05T09:14:00.816Z,73.24
2022-08-05T09:16:29.343Z,73.15
2022-08-05T09:18:56.074Z,72.69
2022-08-05T09:22:22.000Z,73.95
2022-08-05T09:24:15.534Z,73.05
2022-08-05T09:26:43.562Z,72.73
2022-08-05T09:29:10.341Z,73.75
2022-08-05T09:32:41.685Z,73.07
2022-08-05T09:34:23.361Z,72.67
2022-08-05T09:36:55.630Z,73.73
2022-08-05T09:39:41.935Z,73.56
2022-08-05T09:42:22.955Z,74.91
2022-08-05T09:44:56.691Z,75.05
2022-08-05T09:47:48.112Z,75.61
2022-08-05T09:50:13.778Z,74.17
2022-08-05T09:52:45.394Z,74.34
2022-08-05T09:55:56.676Z,75.17
2022-08-05T09:57:59.959Z,75.17
2022-08-05T10:00:27.653Z,74.78
2022-08-05T10:02:54.757Z,75.42
2022-08-05T10:05:27.100Z,75.51
2022-08-05T10:08:35.407Z,74.90
2022-08-05T10:10:53.843Z,74.95
2022-08-05T10:13:45.645Z,75.36
2022-08-05T10:16:42.027Z,75.97
2022-08-05T10:19:23.449Z,76.56
2022-08-05T10:21:59.008Z,75.95
2022-08-05T10:24:27.222Z,75.83
2022-08-05T10:27:00.315Z,76.66
2022-08-05T10:30:41.984Z,76.89
2022-08-05T10:32:54.508Z,77.61
2022-08-05T10:35:03.461Z,78.34
2022-08-05T10:37:40.047Z,78.53
2022-08-05T10:40:34.623Z,79.38
2022-08-05T10:43:35.922Z,79.60
2022-08-05T10:46:06.331Z,79.18
2022-08-05T10:48:56.481Z,77.58
2022-08-05T10:51:28.969Z,78.31
2022-08-05T10:54:01.832Z,79.62
2022-08-05T10:56:49.285Z,78.52
2022-08-05T11:00:03.101Z,78.38
2022-08-05T11:02:34.749Z,79.33
2022-08-05T11:05:05.783Z,78.99
2022-08-05T11:07:32.771Z,79.94
2022-08-05T11:10:27.234Z,80.84
2022-08-05T11:12:55.908Z,80.80
2022-08-05T11:16:00.174Z,81.19
2022-08-05T11:18:34.037Z,81.59
2022-08-05T11:21:06.285Z,81.46
2022-08-05T11:24:05.225Z,81.78
2022-08-05T11:26:40.484Z,81.13
2022-08-05T11:29:40.897Z,81.31
2022-08-05T11:32:26.340Z,81.92
2022-08-05T11:34:54.338Z,80.41
2022-08-05T11:38:28.947Z,81.00
2022-08-05T11:41:03.504Z,82.15
2022-08-05T11:44:12.546Z,82.48
2022-08-05T11:47:14.032Z,80.52
2022-08-05T11:49:50.906Z,82.46
2022-08-05T11:52:29.047Z,83.46
2022-08-05T11:54:57.398Z,83.28
2022-08-05T11:58:08.176Z,84.91
2022-08-05T12:00:31.205Z,83.94
2022-08-05T12:02:57.887Z,82.37
2022-08-05T12:05:32.404Z,82.73
2022-08-05T12:08:10.087Z,80.37
2022-08-05T12:10:45.425Z,81.93
2022-08-05T12:13:16.830Z,79.36
2022-08-05T12:15:49.910Z,78.14
2022-08-05T12:18:20.569Z,80.58
2022-08-05T12:20:50.645Z,81.37
2022-08-05T12:23:17.118Z,78.39
2022-08-05T12:25:56.791Z,78.20
2022-08-05T12:28:32.528Z,77.57
2022-08-05T12:31:02.066Z,78.82
2022-08-05T12:33:37.234Z,77.90
2022-08-05T12:36:09.530Z,75.42
2022-08-05T12:38:41.103Z,76.94
2022-08-05T12:41:12.852Z,73.43
2022-08-05T12:43:57.230Z,71.65
2022-08-05T12:46:31.575Z,71.81
2022-08-05T12:49:13.594Z,72.60
2022-08-05T12:52:10.451Z,72.22
2022-08-05T12:54:33.275Z,72.64
2022-08-05T12:57:09.203Z,72.47
2022-08-05T13:01:59.953Z,71.92
2022-08-05T13:02:36.064Z,66.33
2022-08-05T13:05:06.423Z,66.27
2022-08-05T13:08:00.115Z,64.31
2022-08-05T13:10:20.467Z,64.42
2022-08-05T13:12:57.784Z,62.96
2022-08-05T13:15:41.541Z,61.50
2022-08-05T13:18:20.850Z,58.70
2022-08-05T13:20:49.720Z,55.55
2022-08-05T13:23:22.142Z,55.22
2022-08-05T13:25:52.152Z,56.00
2022-08-05T13:28:25.678Z,57.58
2022-08-05T13:30:53.286Z,56.79
2022-08-05T13:34:21.551Z,56.63
2022-08-05T13:36:06.752Z,54.04
2022-08-05T13:38:38.291Z,54.63
2022-08-05T13:41:08.624Z,54.83
2022-08-05T13:43:45.689Z,54.69
2022-08-05T13:46:44.069Z,54.77
2022-08-05T13:49:11.756Z,54.78
2022-08-05T13:51:40.830Z,54.20
2022-08-05T13:54:12.605Z,54.75
2022-08-05T13:56:45.282Z,55.22
2022-08-05T13:59:21.056Z,54.42
2022-08-05T14:01:58.209Z,52.93
2022-08-05T14:04:49.190Z,54.05
2022-08-05T14:07:56.527Z,54.19
2022-08-05T14:10:10.571Z,53.88
2022-08-05T14:12:37.439Z,54.37
2022-08-05T14:16:04.879Z,55.22
2022-08-05T14:17:55.048Z,55.75
2022-08-05T14:20:27.323Z,55.46
2022-08-05T14:22:54.519Z,55.58
2022-08-05T14:25:22.496Z,56.46
2022-08-05T14:27:54.655Z,56.57
2022-08-05T14:30:21.705Z,56.32
2022-08-05T14:32:48.855Z,57.04
2022-08-05T14:35:16.189Z,56.87
2022-08-05T14:37:52.124Z,57.54
2022-08-05T14:40:21.602Z,56.23
2022-08-05T14:42:51.338Z,55.88
2022-08-05T14:45:18.700Z,57.51
2022-08-05T14:48:02.948Z,57.75
2022-08-05T14:50:32.168Z,56.71
2022-08-05T14:52:59.595Z,56.27
2022-08-05T14:55:28.590Z,56.41
2022-08-05T14:58:11.177Z,55.55
2022-08-05T15:00:39.704Z,56.36
2022-08-05T15:03:33.949Z,55.17
2022-08-05T15:06:12.664Z,55.95
2022-08-05T15:08:59.673Z,55.75
2022-08-05T15:11:52.564Z,55.91
2022-08-05T15:14:33.584Z,56.71
2022-08-05T15:17:01.488Z,56.34
2022-08-05T15:19:30.425Z,57.22
2022-08-05T15:21:59.963Z,57.77
2022-08-05T15:24:27.567Z,60.01
2022-08-05T15:26:53.962Z,61.97
2022-08-05T15:29:22.893Z,63.66
2022-08-05T15:31:52.771Z,65.03
2022-08-05T15:34:33.209Z,66.65
2022-08-05T15:37:06.828Z,68.88
2022-08-05T15:41:01.277Z,70.14
2022-08-05T15:42:50.064Z,71.18
2022-08-05T15:45:15.084Z,73.43
2022-08-05T15:47:43.653Z,75.42
2022-08-05T15:50:15.390Z,76.53
2022-08-05T15:52:53.440Z,74.68
2022-08-05T15:55:24.891Z,72.72
2022-08-05T15:58:09.884Z,75.45
2022-08-05T16:00:57.109Z,72.09
2022-08-05T16:03:30.410Z,68.66
2022-08-05T16:05:59.437Z,67.10
2022-08-05T16:08:30.373Z,66.27
2022-08-05T16:10:57.947Z,66.78
2022-08-05T16:13:34.147Z,65.44
2022-08-05T16:16:01.349Z,62.80
2022-08-05T16:18:29.979Z,61.94
2022-08-05T16:20:56.440Z,62.81
2022-08-05T16:23:22.985Z,60.61
2022-08-05T16:25:49.821Z,60.73
2022-08-05T16:28:22.287Z,59.70
2022-08-05T16:30:52.092Z,56.82
2022-08-05T16:33:19.319Z,56.81
2022-08-05T16:35:49.881Z,56.02
2022-08-05T16:38:25.683Z,55.99
2022-08-05T16:41:00.147Z,55.97
2022-08-05T16:43:32.911Z,55.61
2022-08-05T16:46:04.549Z,55.81
2022-08-05T16:48:38.327Z,55.67
2022-08-05T16:51:09.029Z,56.88
2022-08-05T16:54:05.366Z,55.93
2022-08-05T16:56:24.527Z,55.82
2022-08-05T16:58:51.199Z,56.27
2022-08-05T17:01:18.896Z,56.56
2022-08-05T17:03:45.824Z,57.04
2022-08-05T17:06:12.585Z,58.66
2022-08-05T17:08:53.151Z,59.05
2022-08-05T17:11:23.747Z,60.25
2022-08-05T17:14:00.435Z,59.16
2022-08-05T17:16:33.255Z,59.43
2022-08-05T17:19:02.210Z,58.41
2022-08-05T17:21:35.672Z,57.56
2022-08-05T17:24:19.689Z,57.39
2022-08-05T17:26:52.715Z,57.09
2022-08-05T17:29:22.459Z,56.60
2022-08-05T17:32:00.642Z,55.24
2022-08-05T17:34:30.038Z,56.78
2022-08-05T17:36:58.681Z,55.57
2022-08-05T17:39:34.131Z,55.31
2022-08-05T17:42:20.388Z,54.96
2022-08-05T17:44:51.381Z,54.75
2022-08-05T17:47:22.470Z,54.66
2022-08-05T17:50:00.582Z,54.02
2022-08-05T17:52:34.719Z,53.37
2022-08-05T17:55:20.753Z,52.90
2022-08-05T17:57:48.650Z,52.87
2022-08-05T18:00:17.246Z,52.49
2022-08-05T18:02:46.764Z,52.32
2022-08-05T18:05:16.656Z,52.17
2022-08-05T18:07:44.440Z,52.30
2022-08-05T18:10:20.591Z,51.10
2022-08-05T18:12:48.644Z,51.50
2022-08-05T18:15:15.153Z,51.52
2022-08-05T18:17:58.958Z,52.10
2022-08-05T18:20:29.227Z,52.42
2022-08-05T18:22:58.326Z,52.61
2022-08-05T18:25:33.163Z,53.04
2022-08-05T18:28:04.676Z,52.95
2022-08-05T18:30:32.267Z,52.87
2022-08-05T18:33:00.269Z,53.53
2022-08-05T18:35:49.383Z,53.91
2022-08-05T18:38:16.411Z,54.37
2022-08-05T18:41:56.289Z,54.66
2022-08-05T18:43:37.984Z,54.79
2022-08-05T18:46:09.964Z,55.39
2022-08-05T18:48:41.768Z,55.41
2022-08-05T18:52:06.652Z,55.67
2022-08-05T18:54:14.294Z,56.26
2022-08-05T18:56:40.823Z,56.71
2022-08-05T18:59:43.838Z,57.48
2022-08-05T19:01:58.226Z,58.03
2022-08-05T19:04:25.193Z,58.48
2022-08-05T19:06:51.825Z,59.29
2022-08-05T19:09:21.197Z,59.58
2022-08-05T19:11:59.502Z,60.41
2022-08-05T19:14:44.944Z,60.37
2022-08-05T19:17:15.827Z,60.71
2022-08-05T19:19:48.542Z,61.04
2022-08-05T19:22:17.301Z,61.34
2022-08-05T19:24:54.500Z,61.61
2022-08-05T19:27:27.732Z,62.39
2022-08-05T19:29:57.248Z,62.60
2022-08-05T19:32:26.106Z,63.31
2022-08-05T19:34:54.518Z,63.50
2022-08-05T19:37:22.761Z,63.66
2022-08-05T19:40:01.892Z,63.86
2022-08-05T19:42:35.536Z,64.20
2022-08-05T19:45:05.679Z,64.43
2022-08-05T19:47:32.989Z,64.63
2022-08-05T19:50:01.076Z,65.04
2022-08-05T19:52:31.385Z,65.18
2022-08-05T19:55:00.366Z,65.49
2022-08-05T19:57:48.865Z,65.83
2022-08-05T20:00:18.658Z,66.06
2022-08-05T20:02:47.433Z,66.50
2022-08-05T20:05:24.122Z,67.28
2022-08-05T20:07:54.985Z,67.81
2022-08-05T20:10:24.492Z,68.31
2022-08-05T20:12:55.066Z,68.87
2022-08-05T20:15:23.220Z,66.66
2022-08-05T20:18:10.922Z,69.32
2022-08-05T20:20:56.722Z,69.79
2022-08-05T20:23:40.502Z,70.37
2022-08-05T20:26:16.097Z,71.23
2022-08-05T20:28:50.136Z,71.86
2022-08-05T20:31:17.488Z,72.36
2022-08-05T20:33:48.466Z,72.89
2022-08-05T20:36:17.845Z,73.23
2022-08-05T20:38:53.384Z,73.78
2022-08-05T20:41:27.066Z,73.63
2022-08-05T20:44:18.489Z,74.30
2022-08-05T20:46:46.442Z,74.48
2022-08-05T20:49:13.880Z,75.02
2022-08-05T20:51:40.468Z,75.21
2022-08-05T20:54:07.068Z,75.32
2022-08-05T20:56:42.533Z,75.76
2022-08-05T20:59:14.086Z,76.20
2022-08-05T21:01:46.248Z,76.58
2022-08-05T21:04:13.602Z,76.86
2022-08-05T21:06:45.132Z,77.21
2022-08-05T21:09:12.499Z,77.74
2022-08-05T21:12:09.066Z,77.82
2022-08-05T21:14:27.624Z,77.83
2022-08-05T21:16:54.917Z,78.16
2022-08-05T21:19:21.377Z,78.07
2022-08-05T21:21:50.756Z,77.91
2022-08-05T21:24:19.526Z,77.72
2022-08-05T21:26:53.642Z,77.63
2022-08-05T21:29:26.694Z,78.03
2022-08-05T21:31:58.789Z,78.34
2022-08-05T21:34:25.232Z,78.52
2022-08-05T21:36:54.907Z,78.72
2022-08-05T21:39:26.824Z,78.74
2022-08-05T21:42:01.107Z,78.99
2022-08-05T21:44:29.507Z,78.71
2022-08-05T21:46:57.984Z,79.02
2022-08-05T21:49:58.858Z,78.77
2022-08-05T21:52:16.118Z,78.52
2022-08-05T21:54:51.126Z,78.51
2022-08-05T21:57:31.483Z,78.38
2022-08-05T22:00:10.823Z,78.04
2022-08-05T22:02:38.438Z,77.95
2022-08-05T22:05:06.022Z,77.77
2022-08-05T22:07:40.428Z,77.80
2022-08-05T22:10:25.510Z,77.58
2022-08-05T22:12:57.444Z,77.45
2022-08-05T22:16:00.285Z,76.30
2022-08-05T22:18:11.144Z,77.10
2022-08-05T22:20:39.112Z,77.42
2022-08-05T22:23:25.439Z,77.18
2022-08-05T22:26:30.541Z,77.25
2022-08-05T22:28:57.250Z,77.37
2022-08-05T22:31:25.029Z,77.47
2022-08-05T22:34:01.579Z,77.81
2022-08-05T22:36:29.054Z,77.52
2022-08-05T22:38:56.204Z,77.78
2022-08-05T22:42:05.429Z,77.55
2022-08-05T22:44:10.260Z,77.44
2022-08-05T22:46:39.780Z,77.77
2022-08-05T22:49:23.452Z,77.70
2022-08-05T22:52:06.607Z,77.73
2022-08-05T22:54:34.860Z,77.89
2022-08-05T22:57:01.489Z,77.80
2022-08-05T22:59:46.265Z,78.07
2022-08-05T23:02:17.425Z,78.27
2022-08-05T23:04:51.405Z,78.50
2022-08-05T23:07:19.419Z,78.75
2022-08-05T23:09:57.782Z,78.80
2022-08-05T23:12:32.413Z,78.96
2022-08-05T23:15:01.352Z,79.64
2022-08-05T23:17:34.060Z,79.65
2022-08-05T23:20:10.487Z,79.76
2022-08-05T23:22:47.850Z,79.53
2022-08-05T23:25:17.663Z,79.55
2022-08-05T23:28:03.421Z,79.40
2022-08-05T23:30:40.369Z,79.59
2022-08-05T23:33:21.871Z,79.74
2022-08-05T23:35:56.059Z,79.54
2022-08-05T23:38:23.505Z,79.53
2022-08-05T23:40:52.714Z,79.92
2022-08-05T23:43:25.206Z,79.83
2022-08-05T23:46:21.440Z,80.09
2022-08-05T23:49:00.895Z,80.31
2022-08-05T23:51:52.337Z,80.21
2022-08-05T23:54:25.648Z,80.06
2022-08-05T23:56:53.926Z,80.58
2022-08-05T23:59:20.494Z,80.62
